Time;durP1;ratioP1;P1;durP2;ratioP2;P2;SDS_P1;SDS_P2;PMS_P1;PMS_P2;Temp;Humidity;BMP_temperature;BMP_pressure;BME280_temperature;BME280_humidity;BME280_pressure;Samples;Min_cycle;Max_cycle;Signal;HPM_P1;HPM_P2
2021/07/20 00:03:14;;;;;;;9.88;3.00;;;;;;;14.88;69.99;101882.16;10239162;28;20515;-68
2021/07/20 00:08:11;;;;;;;9.77;3.50;;;;;;;14.82;70.44;101877.09;10241624;28;20037;-67
2021/07/20 00:13:08;;;;;;;8.30;2.92;;;;;;;14.80;70.39;101874.66;10246645;28;20103;-68
2021/07/20 00:18:13;;;;;;;7.88;3.13;;;;;;;14.73;70.34;101871.56;10239119;28;20060;-70
2021/07/20 00:23:11;;;;;;;7.15;3.00;;;;;;;14.74;71.01;101873.19;10230731;28;20410;-69
2021/07/20 00:28:07;;;;;;;9.38;3.20;;;;;;;14.75;70.94;101877.56;10238345;28;20045;-68
2021/07/20 00:33:04;;;;;;;6.18;3.05;;;;;;;14.83;70.53;101878.72;10246282;28;20103;-68
2021/07/20 00:38:01;;;;;;;8.50;3.25;;;;;;;14.82;70.59;101872.41;10242502;28;20132;-68
2021/07/20 00:42:59;;;;;;;6.35;2.92;;;;;;;14.82;70.65;101877.91;10233960;28;20045;-67
2021/07/20 00:47:56;;;;;;;7.55;3.20;;;;;;;14.79;70.94;101873.03;10238413;28;20041;-67
2021/07/20 00:52:53;;;;;;;6.45;2.92;;;;;;;14.71;70.71;101871.06;10246310;28;20474;-67
2021/07/20 00:57:52;;;;;;;7.45;3.15;;;;;;;14.67;71.13;101865.38;10242636;28;20503;-68
2021/07/20 01:02:50;;;;;;;5.78;2.83;;;;;;;14.66;71.18;101871.19;10230045;28;20050;-72
2021/07/20 01:07:47;;;;;;;12.30;3.42;;;;;;;14.59;71.63;101870.84;10230136;28;20041;-71
2021/07/20 01:12:44;;;;;;;10.50;3.20;;;;;;;14.53;72.18;101864.66;10244567;28;20072;-68
2021/07/20 01:17:43;;;;;;;13.80;3.58;;;;;;;14.43;72.17;101865.72;10241048;28;20141;-67
2021/07/20 01:22:51;;;;;;;10.23;4.10;;;;;;;14.34;72.95;101851.09;10202454;28;20487;-69
2021/07/20 01:27:53;;;;;;;9.80;4.47;;;;;;;14.34;72.83;101862.09;10234179;28;20033;-69
2021/07/20 01:32:52;;;;;;;10.27;3.90;;;;;;;14.33;72.83;101860.50;10243800;28;20162;-67
2021/07/20 01:37:50;;;;;;;8.57;3.33;;;;;;;14.24;73.19;101862.38;10234698;28;20056;-67
2021/07/20 01:42:48;;;;;;;9.55;3.65;;;;;;;14.22;73.34;101864.63;10239118;28;20057;-67
2021/07/20 01:47:47;;;;;;;11.90;3.60;;;;;;;14.20;73.47;101866.88;10233287;28;20210;-67
2021/07/20 01:52:45;;;;;;;7.38;3.55;;;;;;;14.20;73.83;101864.97;10245064;28;20048;-70
2021/07/20 01:57:42;;;;;;;11.43;4.88;;;;;;;14.14;73.94;101868.16;10228467;28;20099;-67
2021/07/20 02:02:53;;;;;;;6.40;3.40;;;;;;;14.10;74.17;101867.97;10226703;28;20103;-67
2021/07/20 02:13:29;;;;;;;12.10;4.07;;;;;;;14.01;74.25;101869.84;10076793;28;20098;-67
2021/07/20 02:18:28;;;;;;;7.47;3.42;;;;;;;13.97;75.11;101868.84;10191767;28;20538;-67
2021/07/20 02:23:24;;;;;;;8.05;3.40;;;;;;;13.94;75.17;101866.72;10203141;28;20050;-67
2021/07/20 02:28:22;;;;;;;8.23;4.50;;;;;;;14.02;74.66;101861.28;10231399;28;20045;-69
2021/07/20 02:33:20;;;;;;;11.75;4.35;;;;;;;13.98;74.74;101865.78;10236753;28;20049;-69
2021/07/20 02:38:19;;;;;;;11.75;4.18;;;;;;;13.90;74.95;101863.75;10241207;28;20392;-67
2021/07/20 02:43:20;;;;;;;11.32;3.83;;;;;;;13.86;75.40;101862.78;10237372;28;20140;-67
2021/07/20 02:48:19;;;;;;;9.15;4.03;;;;;;;13.91;75.11;101854.41;10237799;28;20095;-68
2021/07/20 02:53:16;;;;;;;9.65;4.70;;;;;;;13.81;75.58;101868.41;10234136;28;20077;-68
2021/07/20 02:58:13;;;;;;;8.43;3.97;;;;;;;13.78;75.21;101860.78;10245777;28;20115;-69
2021/07/20 03:03:10;;;;;;;8.15;3.90;;;;;;;13.78;75.81;101863.53;10236170;28;20136;-69
2021/07/20 03:08:08;;;;;;;10.50;4.20;;;;;;;13.78;76.00;101861.56;10228285;28;20045;-67
2021/07/20 03:13:08;;;;;;;7.60;3.92;;;;;;;13.81;75.41;101865.66;10246845;28;20041;-68
2021/07/20 03:18:07;;;;;;;9.25;4.28;;;;;;;13.85;75.35;101866.66;10245245;28;20085;-68
2021/07/20 03:23:05;;;;;;;8.77;4.22;;;;;;;13.85;75.21;101869.41;10232826;28;20045;-66
2021/07/20 03:28:05;;;;;;;9.50;4.25;;;;;;;13.78;75.54;101871.75;10228737;28;20469;-69
2021/07/20 03:33:03;;;;;;;11.55;4.25;;;;;;;13.72;75.62;101884.03;10250659;28;20056;-66
2021/07/20 03:38:00;;;;;;;11.60;4.85;;;;;;;13.63;76.21;101882.00;10243920;28;20053;-69
2021/07/20 03:42:58;;;;;;;9.15;4.50;;;;;;;13.66;76.20;101884.13;10233315;28;20087;-68
2021/07/20 03:47:55;;;;;;;9.63;4.18;;;;;;;13.69;76.22;101879.94;10234816;28;20041;-68
2021/07/20 03:52:53;;;;;;;10.68;4.18;;;;;;;13.77;75.88;101887.44;10248439;28;20396;-71
2021/07/20 03:57:49;;;;;;;11.20;4.40;;;;;;;13.78;75.51;101888.25;10246742;28;20048;-69
2021/07/20 04:02:56;;;;;;;8.43;4.45;;;;;;;13.80;75.34;101891.50;10224144;28;20099;-71
2021/07/20 04:07:55;;;;;;;9.70;4.03;;;;;;;13.77;75.39;101897.66;10246413;28;20041;-71
2021/07/20 04:12:51;;;;;;;13.43;5.22;;;;;;;13.79;75.84;101895.41;10226897;28;20072;-70
2021/07/20 04:17:48;;;;;;;10.07;3.92;;;;;;;13.86;75.04;101906.78;10229708;28;20715;-69
2021/07/20 04:22:45;;;;;;;14.10;4.50;;;;;;;13.86;75.26;101902.09;10241884;28;20065;-68
2021/07/20 04:27:42;;;;;;;11.27;4.10;;;;;;;13.93;75.10;101901.66;10237906;28;20075;-70
2021/07/20 04:32:44;;;;;;;7.38;3.45;;;;;;;13.96;75.21;101900.22;10235953;28;20065;-68
2021/07/20 04:37:42;;;;;;;13.13;4.13;;;;;;;14.02;74.88;101904.47;10227260;28;20041;-68
2021/07/20 04:42:40;;;;;;;9.55;3.67;;;;;;;14.09;74.56;101911.16;10242615;28;20049;-68
2021/07/20 04:47:38;;;;;;;7.10;3.33;;;;;;;14.14;74.35;101912.16;10242957;28;20045;-68
2021/07/20 04:52:37;;;;;;;8.75;3.40;;;;;;;14.19;73.79;101921.09;10243296;28;20045;-68
2021/07/20 04:57:35;;;;;;;8.00;3.25;;;;;;;14.31;74.04;101923.25;10229930;28;20455;-69
2021/07/20 05:02:35;;;;;;;12.13;4.10;;;;;;;14.35;73.54;101929.78;10242558;28;20128;-68
2021/07/20 05:07:33;;;;;;;11.88;4.47;;;;;;;14.41;73.33;101928.53;10232619;28;20044;-69
2021/07/20 05:12:31;;;;;;;6.53;2.88;;;;;;;14.51;72.85;101928.25;10242039;28;20076;-68
2021/07/20 05:17:28;;;;;;;12.00;3.08;;;;;;;14.53;72.30;101930.69;10243738;28;20132;-68
2021/07/20 05:22:26;;;;;;;11.82;3.05;;;;;;;14.52;71.16;101924.34;10229874;28;20111;-69
2021/07/20 05:27:23;;;;;;;7.28;3.00;;;;;;;14.61;71.68;101926.41;10233614;28;20549;-68
2021/07/20 05:32:22;;;;;;;8.07;3.63;;;;;;;14.70;70.50;101935.50;10230399;28;20091;-68
2021/07/20 05:37:19;;;;;;;9.70;2.65;;;;;;;14.77;70.67;101935.88;10242916;28;20064;-68
2021/07/20 05:42:20;;;;;;;9.40;3.30;;;;;;;14.87;70.25;101935.56;10237479;28;20842;-68
2021/07/20 05:47:17;;;;;;;13.40;4.18;;;;;;;14.94;70.69;101935.97;10232980;28;20132;-68
2021/07/20 05:52:27;;;;;;;11.43;3.17;;;;;;;15.02;68.61;101941.81;10248174;28;20056;-69
2021/07/20 05:57:25;;;;;;;10.27;3.60;;;;;;;15.07;68.10;101933.41;10252667;28;20045;-68
2021/07/20 06:02:23;;;;;;;9.32;2.80;;;;;;;14.99;67.84;101931.41;10229752;28;20069;-68
2021/07/20 06:07:20;;;;;;;9.85;3.00;;;;;;;15.09;69.04;101936.66;10235369;28;20092;-68
2021/07/20 06:12:20;;;;;;;9.60;3.15;;;;;;;15.21;68.12;101934.09;10263262;28;20045;-68
2021/07/20 06:17:21;;;;;;;7.97;2.92;;;;;;;15.09;68.71;101942.97;10250604;28;20068;-68
2021/07/20 06:22:22;;;;;;;7.25;2.50;;;;;;;15.13;69.21;101932.94;10251006;28;20140;-68
2021/07/20 06:27:19;;;;;;;8.05;2.40;;;;;;;15.30;69.40;101932.16;10236949;28;20140;-68
2021/07/20 06:32:18;;;;;;;6.60;2.58;;;;;;;15.26;69.13;101933.94;10254131;28;20569;-68
2021/07/20 06:37:15;;;;;;;9.75;3.33;;;;;;;15.30;67.91;101937.69;10246680;28;20056;-68
2021/07/20 06:42:13;;;;;;;10.10;3.35;;;;;;;15.47;67.76;101936.09;10240301;28;20510;-68
2021/07/20 06:47:17;;;;;;;8.60;3.33;;;;;;;15.56;66.95;101934.16;10239720;28;20049;-68
2021/07/20 06:52:15;;;;;;;7.90;3.00;;;;;;;15.69;66.76;101937.94;10242531;28;20054;-69
2021/07/20 06:57:16;;;;;;;10.10;3.80;;;;;;;15.72;64.58;101940.88;10236902;28;20388;-68
2021/07/20 07:02:19;;;;;;;9.57;3.28;;;;;;;15.92;64.53;101941.34;10241700;28;20079;-68
2021/07/20 07:07:19;;;;;;;6.78;2.90;;;;;;;15.98;64.60;101938.09;10240610;28;20098;-68
2021/07/20 07:12:17;;;;;;;9.82;3.67;;;;;;;16.11;64.21;101950.13;10235312;28;20107;-68
2021/07/20 07:17:14;;;;;;;6.68;3.58;;;;;;;16.31;63.73;101943.09;10253997;28;20072;-68
2021/07/20 07:22:14;;;;;;;8.13;4.20;;;;;;;16.34;62.37;101953.50;10246550;28;20053;-68
2021/07/20 07:27:13;;;;;;;8.50;4.32;;;;;;;16.54;61.61;101953.94;10239671;28;20056;-68
2021/07/20 07:32:11;;;;;;;10.10;5.10;;;;;;;16.77;60.91;101949.00;10243044;28;20052;-69
2021/07/20 07:37:09;;;;;;;10.55;4.72;;;;;;;17.15;61.43;101939.94;10257881;28;20049;-68
2021/07/20 07:42:07;;;;;;;9.77;5.35;;;;;;;17.29;60.66;101954.34;10232521;28;20502;-68
2021/07/20 07:47:04;;;;;;;10.85;5.00;;;;;;;17.19;59.03;101949.19;10236091;28;20076;-68
2021/07/20 07:52:01;;;;;;;9.75;5.60;;;;;;;16.99;59.02;101946.03;10251152;28;20102;-68
2021/07/20 07:56:58;;;;;;;11.27;5.75;;;;;;;16.96;59.39;101941.16;10241056;28;20073;-69
2021/07/20 08:01:56;;;;;;;16.55;6.43;;;;;;;16.92;58.72;101951.28;10237670;28;20071;-69
2021/07/20 08:06:55;;;;;;;12.48;5.82;;;;;;;16.88;58.72;101944.78;10230260;28;20045;-68
2021/07/20 08:11:52;;;;;;;10.00;5.35;;;;;;;16.96;58.08;101946.69;10247711;28;20525;-68
2021/07/20 08:16:57;;;;;;;11.60;5.20;;;;;;;17.21;58.10;101952.44;10246151;28;20132;-68
2021/07/20 08:21:59;;;;;;;8.82;4.60;;;;;;;17.42;56.51;101964.34;10245250;28;20455;-68
2021/07/20 08:27:05;;;;;;;10.10;5.60;;;;;;;17.30;56.46;101953.19;10229794;28;20474;-68
2021/07/20 08:32:09;;;;;;;11.23;5.57;;;;;;;17.52;56.37;101951.28;10234443;28;20087;-68
2021/07/20 08:37:07;;;;;;;12.50;5.57;;;;;;;17.56;56.71;101950.28;10244796;28;20046;-68
2021/07/20 08:42:45;;;;;;;9.23;5.47;;;;;;;17.55;56.35;101945.09;10230654;28;20057;-68
2021/07/20 08:48:08;;;;;;;9.18;5.05;;;;;;;17.48;55.91;101955.88;10232055;28;20080;-71
2021/07/20 08:53:33;;;;;;;9.15;5.25;;;;;;;17.53;55.55;101950.16;10214058;28;20489;-71
2021/07/20 08:58:39;;;;;;;9.07;4.00;;;;;;;17.86;55.39;101955.78;10240179;28;20040;-67
2021/07/20 09:04:00;;;;;;;9.90;4.28;;;;;;;18.23;54.38;101951.22;10229447;28;20041;-66
2021/07/20 09:09:07;;;;;;;8.98;4.78;;;;;;;18.33;53.44;101957.50;10249941;28;20466;-68
2021/07/20 09:14:41;;;;;;;11.68;5.18;;;;;;;18.18;54.41;101954.22;10239311;28;20088;-70
2021/07/20 09:19:56;;;;;;;;;;;;;;;18.21;54.32;101950.75;10229709;28;20137;-67
2021/07/20 09:25:02;;;;;;;11.27;5.67;;;;;;;18.22;53.11;101952.41;10209653;28;20357;-71
2021/07/20 09:30:02;;;;;;;9.27;4.38;;;;;;;18.32;53.65;101955.88;10242070;28;20550;-68
2021/07/20 09:35:12;;;;;;;10.02;5.10;;;;;;;18.32;54.00;101964.19;10248980;28;20453;-68
2021/07/20 09:40:44;;;;;;;7.55;4.93;;;;;;;18.63;53.21;101967.28;10232173;28;20049;-68
2021/07/20 09:45:49;;;;;;;8.48;4.32;;;;;;;19.00;51.76;101967.38;10222755;28;20077;-67
2021/07/20 09:50:46;;;;;;;8.32;4.88;;;;;;;18.83;51.86;101959.28;10242813;28;20047;-68
2021/07/20 09:56:17;;;;;;;7.50;4.15;;;;;;;18.80;51.84;101971.84;10245492;28;20099;-70
2021/07/20 10:01:39;;;;;;;8.38;4.63;;;;;;;18.85;52.53;101973.59;10237917;28;20037;-67
2021/07/20 10:06:45;;;;;;;9.07;4.88;;;;;;;19.08;52.79;101949.84;10229521;28;20056;-69
2021/07/20 10:11:49;;;;;;;9.48;5.05;;;;;;;19.78;50.75;101948.84;10251360;28;20092;-72
2021/07/20 10:16:57;;;;;;;7.38;4.70;;;;;;;20.49;47.82;101957.56;10238428;28;20049;-69
2021/07/20 10:21:59;;;;;;;8.73;5.05;;;;;;;21.20;45.25;101945.53;10227893;28;20423;-70
2021/07/20 10:27:25;;;;;;;7.22;4.55;;;;;;;21.71;44.01;101941.94;10229365;28;20064;-67
2021/07/20 10:32:59;;;;;;;9.55;4.90;;;;;;;22.24;43.03;101939.47;10228997;28;20124;-69
2021/07/20 10:37:57;;;;;;;;;;;;;;;23.42;43.07;101931.50;10245484;28;20048;-69
2021/07/20 10:43:02;;;;;;;8.40;4.50;;;;;;;22.85;41.28;101932.19;10235999;28;19921;-68
2021/07/20 10:48:04;;;;;;;8.70;5.05;;;;;;;22.27;43.10;101924.00;10234649;28;20044;-69
2021/07/20 10:53:06;;;;;;;8.37;4.60;;;;;;;22.12;43.79;101919.28;10236069;28;20136;-70
2021/07/20 10:58:18;;;;;;;9.10;4.40;;;;;;;21.78;44.71;101913.44;10240352;28;20045;-71
2021/07/20 11:03:25;;;;;;;9.07;5.72;;;;;;;22.26;42.65;101911.25;10233248;28;20042;-67
2021/07/20 11:08:22;;;;;;;10.18;6.00;;;;;;;21.47;45.19;101915.19;10248515;28;20041;-69
2021/07/20 11:13:30;;;;;;;8.73;4.90;;;;;;;21.10;46.18;101911.91;10245416;28;20049;-67
2021/07/20 11:18:31;;;;;;;7.10;4.03;;;;;;;22.55;43.09;101900.59;10249474;28;20149;-70
2021/07/20 11:23:33;;;;;;;9.07;4.43;;;;;;;22.53;43.28;101908.53;10233277;28;20096;-71
2021/07/20 11:28:31;;;;;;;9.73;5.28;;;;;;;21.66;43.82;101919.16;10230987;28;20064;-68
2021/07/20 11:33:36;;;;;;;9.80;5.00;;;;;;;21.17;45.41;101912.88;10241014;28;20076;-68
2021/07/20 11:38:39;;;;;;;9.48;4.70;;;;;;;20.95;46.40;101922.66;10235604;28;20048;-68
2021/07/20 11:43:50;;;;;;;11.35;6.20;;;;;;;21.61;45.89;101915.47;10230182;28;20061;-69
2021/07/20 11:48:53;;;;;;;11.95;6.35;;;;;;;22.00;43.99;101911.88;10232530;28;20480;-69
2021/07/20 11:54:18;;;;;;;;;;;;;;;22.21;43.09;101897.59;10251519;28;20498;-69
2021/07/20 11:59:42;;;;;;;9.15;5.35;;;;;;;22.18;42.77;101909.47;10223160;28;19974;-74
2021/07/20 12:04:54;;;;;;;14.70;6.68;;;;;;;21.79;44.45;101898.34;10242077;28;20046;-68
2021/07/20 12:10:17;;;;;;;10.35;5.57;;;;;;;22.16;45.17;101895.09;10224354;28;20053;-68
2021/07/20 12:15:15;;;;;;;11.85;4.75;;;;;;;22.51;44.55;101899.72;10231337;28;20141;-68
2021/07/20 12:20:15;;;;;;;12.25;6.68;;;;;;;22.26;44.81;101894.53;10230073;28;20072;-67
2021/07/20 12:25:13;;;;;;;9.40;5.22;;;;;;;22.29;44.40;101904.94;10233003;28;20052;-70
2021/07/20 12:30:13;;;;;;;9.52;5.40;;;;;;;21.85;44.86;101896.88;10226425;28;20046;-68
2021/07/20 12:35:12;;;;;;;8.07;4.95;;;;;;;21.42;47.26;101902.34;10241877;28;20061;-69
2021/07/20 12:40:12;;;;;;;;;;;;;;;21.31;48.51;101900.47;10232624;28;20483;-69
2021/07/20 12:45:12;;;;;;;9.48;5.03;;;;;;;21.49;47.87;101896.16;10242388;28;19963;-69
2021/07/20 12:50:13;;;;;;;8.95;4.85;;;;;;;21.67;48.27;101884.56;10242968;28;20106;-68
2021/07/20 12:55:14;;;;;;;9.00;5.30;;;;;;;21.70;48.75;101883.84;10231475;28;20073;-67
2021/07/20 13:00:13;;;;;;;8.88;5.35;;;;;;;21.86;49.28;101884.56;10235695;28;20044;-69
2021/07/20 13:05:12;;;;;;;9.00;5.68;;;;;;;21.92;49.13;101885.88;10239388;28;20198;-71
2021/07/20 13:10:10;;;;;;;8.60;5.82;;;;;;;21.88;49.26;101879.44;10236102;28;20477;-71
2021/07/20 13:15:11;;;;;;;13.43;7.00;;;;;;;21.33;50.25;101890.59;10245374;28;20052;-68
2021/07/20 13:20:09;;;;;;;7.20;4.32;;;;;;;21.41;50.26;101891.59;10236854;28;20048;-68
2021/07/20 13:25:11;;;;;;;8.77;4.47;;;;;;;21.36;51.21;101892.63;10236172;28;20081;-68
2021/07/20 13:30:19;;;;;;;10.30;5.43;;;;;;;21.40;49.57;101889.97;10241517;28;20079;-69
2021/07/20 13:35:18;;;;;;;8.18;4.68;;;;;;;21.55;50.81;101889.09;10238580;28;20057;-68
2021/07/20 13:40:19;;;;;;;9.18;4.90;;;;;;;21.31;50.70;101883.78;10230196;28;20056;-67
2021/07/20 13:45:18;;;;;;;8.50;5.38;;;;;;;21.28;50.30;101895.63;10243696;28;20114;-68
2021/07/20 13:50:17;;;;;;;10.35;4.82;;;;;;;21.02;50.68;101894.22;10244048;28;20053;-67
2021/07/20 13:55:19;;;;;;;9.63;5.53;;;;;;;20.95;51.22;101896.84;10251165;28;20076;-68
2021/07/20 14:00:16;;;;;;;9.55;5.97;;;;;;;20.74;51.69;101897.94;10240461;28;20056;-67
2021/07/20 14:05:15;;;;;;;9.77;5.78;;;;;;;21.01;52.01;101906.53;10229391;28;20057;-66
2021/07/20 14:10:12;;;;;;;11.57;6.72;;;;;;;21.04;51.77;101899.44;10240925;28;20048;-67
2021/07/20 14:15:11;;;;;;;12.57;8.13;;;;;;;21.33;51.17;101890.59;10243785;28;20056;-67
2021/07/20 14:20:13;;;;;;;9.23;6.05;;;;;;;21.20;51.35;101889.91;10224982;28;20061;-70
2021/07/20 14:25:10;;;;;;;10.40;6.60;;;;;;;20.94;52.24;101892.47;10220145;28;20070;-67
2021/07/20 14:30:10;;;;;;;11.98;6.55;;;;;;;20.98;53.46;101894.16;10228127;28;20060;-69
2021/07/20 14:35:08;;;;;;;9.93;6.65;;;;;;;20.74;54.20;101895.16;10226162;28;20126;-67
2021/07/20 14:40:11;;;;;;;11.77;6.95;;;;;;;20.56;55.51;101899.44;10241924;28;20465;-66
2021/07/20 14:45:09;;;;;;;;;;;;;;;20.25;59.05;101906.56;10233300;28;20530;-67
2021/07/20 14:50:26;;;;;;;12.07;7.13;;;;;;;20.07;60.38;101903.28;10233502;28;20436;-71
2021/07/20 14:55:38;;;;;;;11.60;7.60;;;;;;;20.06;60.34;101898.09;10230463;28;22047;-69
2021/07/20 15:00:59;;;;;;;11.77;8.05;;;;;;;20.19;59.87;101891.34;10236756;28;20104;-69
2021/07/20 15:05:56;;;;;;;19.67;7.95;;;;;;;20.24;59.74;101893.00;10232161;28;20049;-72
2021/07/20 15:10:55;;;;;;;13.02;6.90;;;;;;;20.22;59.50;101887.84;10231270;28;20502;-69
2021/07/20 15:15:58;;;;;;;11.48;6.35;;;;;;;20.43;59.13;101889.56;10229333;28;20122;-68
2021/07/20 15:20:55;;;;;;;10.38;6.90;;;;;;;20.65;58.63;101879.84;10235781;28;20045;-69
2021/07/20 15:25:51;;;;;;;11.65;6.40;;;;;;;20.67;57.37;101889.41;10229637;28;20099;-69
2021/07/20 15:30:51;;;;;;;10.70;6.07;;;;;;;20.44;58.53;101888.41;10233133;28;20442;-69
2021/07/20 15:35:49;;;;;;;9.93;6.15;;;;;;;20.28;58.85;101897.50;10233769;28;20069;-69
2021/07/20 15:40:46;;;;;;;12.88;7.15;;;;;;;20.29;59.37;101895.56;10229286;28;20114;-68
2021/07/20 15:45:42;;;;;;;9.85;5.93;;;;;;;20.05;57.92;101902.03;10233621;28;20103;-68
2021/07/20 15:50:40;;;;;;;11.07;7.30;;;;;;;19.94;56.77;101897.00;10236793;28;20042;-71
2021/07/20 15:55:39;;;;;;;11.35;6.22;;;;;;;19.94;55.93;101897.00;10231718;28;20399;-74
2021/07/20 16:00:36;;;;;;;12.43;7.20;;;;;;;20.01;55.42;101895.59;10228728;28;20049;-69
2021/07/20 16:05:35;;;;;;;9.43;5.50;;;;;;;19.97;54.23;101898.25;10226207;28;20049;-70
2021/07/20 16:10:36;;;;;;;9.68;6.35;;;;;;;20.15;54.29;101895.97;10231036;28;20107;-68
2021/07/20 16:15:35;;;;;;;10.93;6.05;;;;;;;20.17;54.28;101890.88;10214444;28;20056;-69
2021/07/20 16:20:39;;;;;;;9.13;6.15;;;;;;;20.14;53.53;101889.63;10221093;28;20068;-71
2021/07/20 16:25:37;;;;;;;8.10;5.10;;;;;;;20.68;52.41;101885.50;10214672;28;20096;-68
2021/07/20 16:30:37;;;;;;;10.73;6.28;;;;;;;21.04;52.21;101880.78;10212697;28;20049;-69
2021/07/20 16:35:34;;;;;;;11.75;5.78;;;;;;;21.02;52.07;101886.69;10213561;28;20496;-70
2021/07/20 16:40:36;;;;;;;9.30;5.28;;;;;;;20.78;53.00;101878.59;10208194;28;20115;-66
2021/07/20 16:45:40;;;;;;;10.25;6.43;;;;;;;20.55;54.44;101884.72;10230626;28;20045;-68
2021/07/20 16:50:38;;;;;;;10.52;6.30;;;;;;;20.43;54.78;101884.81;10219352;28;20047;-66
2021/07/20 16:55:34;;;;;;;10.13;6.80;;;;;;;20.28;55.76;101889.16;10216235;28;20049;-69
2021/07/20 17:00:32;;;;;;;10.13;6.35;;;;;;;20.02;57.93;101891.63;10209864;28;20563;-69
2021/07/20 17:05:30;;;;;;;12.18;7.53;;;;;;;19.93;58.57;101900.91;10187492;28;20132;-68
2021/07/20 17:10:27;;;;;;;11.82;6.63;;;;;;;19.79;59.24;101903.28;10215172;28;20081;-66
2021/07/20 17:15:26;;;;;;;12.02;6.20;;;;;;;19.76;59.55;101907.56;10224377;28;20472;-68
2021/07/20 17:20:23;;;;;;;11.98;5.43;;;;;;;19.58;59.75;101899.84;10223116;28;20108;-69
2021/07/20 17:25:21;;;;;;;11.40;5.78;;;;;;;19.66;59.65;101910.03;10226563;28;20049;-70
2021/07/20 17:30:18;;;;;;;8.10;5.28;;;;;;;19.71;59.44;101909.81;10212215;28;20049;-69
2021/07/20 17:35:17;;;;;;;8.65;5.20;;;;;;;19.73;58.96;101908.28;10222868;28;20140;-69
2021/07/20 17:40:20;;;;;;;353.52;176.95;;;;;;;19.52;59.66;101919.53;10229027;28;20049;-67
2021/07/20 17:45:17;;;;;;;119.15;85.00;;;;;;;19.42;60.32;101920.00;10225657;28;20080;-70
2021/07/20 17:50:16;;;;;;;24.85;17.25;;;;;;;19.33;60.57;101919.31;10226690;28;20073;-69
2021/07/20 17:55:18;;;;;;;12.52;6.35;;;;;;;19.33;60.82;101919.31;10230973;28;20099;-69
2021/07/20 18:00:28;;;;;;;12.23;6.50;;;;;;;19.25;61.37;101931.34;10227092;28;20080;-70
2021/07/20 18:05:26;;;;;;;8.65;5.78;;;;;;;19.33;61.29;101934.00;10225267;28;20474;-69
2021/07/20 18:10:23;;;;;;;30.13;15.20;;;;;;;19.17;61.49;101930.31;10228622;28;20045;-68
2021/07/20 18:15:19;;;;;;;10.65;6.00;;;;;;;19.12;61.33;101931.34;10228239;28;20069;-69
2021/07/20 18:20:16;;;;;;;8.02;5.18;;;;;;;18.94;61.02;101924.44;10223153;28;20045;-68
2021/07/20 18:25:12;;;;;;;10.50;5.28;;;;;;;18.92;61.00;101923.97;10233019;28;20077;-68
2021/07/20 18:30:09;;;;;;;8.20;4.93;;;;;;;18.83;61.77;101943.47;10223781;28;20049;-67
2021/07/20 18:35:06;;;;;;;13.13;5.63;;;;;;;18.71;62.29;101948.97;10231633;28;20052;-68
2021/07/20 18:40:04;;;;;;;9.98;6.00;;;;;;;18.75;62.31;101940.75;10209405;28;20154;-68
2021/07/20 18:45:19;;;;;;;9.60;6.30;;;;;;;18.88;61.95;101947.97;10231995;28;20275;-65
2021/07/20 18:50:16;;;;;;;9.93;5.65;;;;;;;18.93;62.18;101958.81;10237288;28;20038;-68
2021/07/20 18:55:13;;;;;;;10.68;5.93;;;;;;;18.91;62.51;101952.81;10214958;28;20737;-65
2021/07/20 19:00:12;;;;;;;15.18;7.90;;;;;;;18.87;62.64;101955.47;10227767;28;20045;-66
2021/07/20 19:05:09;;;;;;;9.52;6.40;;;;;;;18.86;63.23;101958.59;10252176;28;20550;-67
2021/07/20 19:10:06;;;;;;;8.55;5.97;;;;;;;18.84;63.23;101958.13;10245848;28;20040;-67
2021/07/20 19:15:05;;;;;;;13.20;6.20;;;;;;;18.75;63.94;101962.91;10233875;28;20053;-68
2021/07/20 19:20:06;;;;;;;10.13;5.82;;;;;;;18.79;63.60;101970.22;10234743;28;20107;-69
2021/07/20 19:25:06;;;;;;;9.85;6.05;;;;;;;18.70;64.89;101967.53;10226094;28;20053;-68
2021/07/20 19:30:04;;;;;;;10.20;6.72;;;;;;;18.63;65.45;101969.25;10231159;28;20045;-68
2021/07/20 19:35:00;;;;;;;10.15;6.97;;;;;;;18.54;66.26;101979.59;10226258;28;20080;-68
2021/07/20 19:39:57;;;;;;;14.93;8.32;;;;;;;18.47;66.71;101985.69;10237448;28;20049;-69
2021/07/20 19:44:53;;;;;;;14.25;8.10;;;;;;;18.47;66.95;101985.69;10229162;28;20053;-67
2021/07/20 19:49:50;;;;;;;11.00;7.60;;;;;;;18.46;67.46;101989.63;10228816;28;20042;-69
2021/07/20 19:54:46;;;;;;;14.90;8.93;;;;;;;18.49;67.74;101994.47;10220141;28;20049;-72
2021/07/20 19:59:43;;;;;;;14.02;8.00;;;;;;;18.49;67.75;102000.00;10219865;28;20143;-73
2021/07/20 20:04:40;;;;;;;15.30;9.25;;;;;;;18.47;68.00;101985.69;10224536;28;20081;-69
2021/07/20 20:09:39;;;;;;;11.45;7.00;;;;;;;18.41;68.49;101998.16;10234059;28;20073;-71
2021/07/20 20:14:38;;;;;;;13.52;8.20;;;;;;;18.48;67.97;102001.19;10228559;28;20049;-72
2021/07/20 20:19:34;;;;;;;9.85;6.32;;;;;;;18.44;67.74;102009.34;10236394;28;20125;-72
2021/07/20 20:24:31;;;;;;;9.63;6.22;;;;;;;18.45;66.64;102015.69;10230103;28;20046;-70
2021/07/20 20:29:27;;;;;;;12.32;7.28;;;;;;;18.30;67.54;102004.09;10227617;28;20052;-72
2021/07/20 20:34:24;;;;;;;10.48;6.75;;;;;;;18.33;68.31;102018.41;10240435;28;20148;-70
2021/07/20 20:39:20;;;;;;;14.02;7.30;;;;;;;18.21;69.53;102017.19;10217071;28;20049;-71
2021/07/20 20:44:17;;;;;;;11.73;7.55;;;;;;;18.20;69.88;102020.31;10220038;28;20144;-72
2021/07/20 20:49:13;;;;;;;12.55;7.03;;;;;;;18.21;69.97;102027.47;10229944;28;20073;-71
2021/07/20 20:54:10;;;;;;;10.63;7.45;;;;;;;18.15;69.87;102035.19;10232973;28;20099;-69
2021/07/20 20:59:06;;;;;;;10.70;7.22;;;;;;;18.16;69.68;102035.97;10230145;28;20053;-69
2021/07/20 21:04:03;;;;;;;13.02;8.02;;;;;;;18.04;70.50;102033.94;10234492;28;20049;-72
2021/07/20 21:08:59;;;;;;;14.63;8.77;;;;;;;17.95;70.57;102038.72;10235038;28;20049;-71
2021/07/20 21:13:57;;;;;;;12.65;8.38;;;;;;;17.95;71.01;102041.50;10234331;28;20107;-71
2021/07/20 21:18:54;;;;;;;17.13;9.52;;;;;;;18.07;70.62;102038.81;10204291;28;20426;-69
2021/07/20 21:23:51;;;;;;;14.35;8.90;;;;;;;18.07;70.92;102033.28;10235314;28;20143;-70
2021/07/20 21:28:47;;;;;;;14.40;8.63;;;;;;;18.02;71.28;102036.25;10232481;28;20050;-69
2021/07/20 21:33:44;;;;;;;16.05;8.95;;;;;;;18.03;72.08;102043.38;10240244;28;20084;-68
2021/07/20 21:38:40;;;;;;;13.60;8.52;;;;;;;17.96;72.86;102049.47;10218801;28;20088;-69
2021/07/20 21:43:36;;;;;;;13.68;8.25;;;;;;;17.96;73.23;102038.41;10218738;28;20049;-70
2021/07/20 21:48:33;;;;;;;12.65;8.32;;;;;;;17.93;73.41;102038.25;10238932;28;20072;-71
2021/07/20 21:53:30;;;;;;;16.45;9.35;;;;;;;17.91;73.63;102037.78;10237758;28;20088;-70
2021/07/20 21:58:26;;;;;;;11.27;7.90;;;;;;;17.80;74.28;102040.91;10235456;28;20108;-68
2021/07/20 22:03:23;;;;;;;13.48;8.45;;;;;;;17.79;74.34;102039.28;10233456;28;20479;-70
2021/07/20 22:08:20;;;;;;;16.40;8.65;;;;;;;17.81;74.52;102042.56;10230507;28;20044;-70
2021/07/20 22:13:17;;;;;;;14.25;8.23;;;;;;;17.87;74.10;102032.94;10239087;28;20131;-70
2021/07/20 22:18:14;;;;;;;12.55;8.75;;;;;;;17.88;74.26;102037.31;10232988;28;20086;-70
2021/07/20 22:23:17;;;;;;;13.18;8.50;;;;;;;17.84;74.48;102036.34;10239857;28;20131;-72
2021/07/20 22:28:14;;;;;;;12.27;8.50;;;;;;;17.82;74.60;102037.81;10234544;28;20050;-72
2021/07/20 22:33:13;;;;;;;15.20;7.65;;;;;;;17.93;74.19;102043.78;10238148;28;20118;-72
2021/07/20 22:38:10;;;;;;;15.48;8.60;;;;;;;17.96;74.12;102043.09;10241755;28;20537;-71
2021/07/20 22:43:07;;;;;;;15.10;9.00;;;;;;;17.92;74.44;102042.19;10226319;28;20466;-69
2021/07/20 22:48:05;;;;;;;15.93;8.57;;;;;;;17.87;74.70;102035.69;10240152;28;20582;-70
2021/07/20 22:53:03;;;;;;;11.38;8.40;;;;;;;17.82;75.09;102035.91;10230095;28;20045;-70
2021/07/20 22:58:28;;;;;;;13.35;8.77;;;;;;;17.83;75.38;102045.00;10229426;28;20053;-69
2021/07/20 23:03:28;;;;;;;11.38;7.97;;;;;;;17.85;75.16;102040.75;10246809;28;20092;-69